sensor_id;sensor_type;location;lat;lon;timestamp;P1;durP1;ratioP1;P2;durP2;ratioP2
17151;SDS011;8691;50.828;4.700;2022-08-24T00:00:56;4.93;;;2.10;;
17151;SDS011;8691;50.828;4.700;2022-08-24T00:03:23;3.17;;;2.20;;
17151;SDS011;8691;50.828;4.700;2022-08-24T00:05:50;2.53;;;2.33;;
17151;SDS011;8691;50.828;4.700;2022-08-24T00:08:16;4.30;;;2.60;;
17151;SDS011;8691;50.828;4.700;2022-08-24T00:10:43;4.23;;;2.30;;
17151;SDS011;8691;50.828;4.700;2022-08-24T00:13:10;2.17;;;2.00;;
17151;SDS011;8691;50.828;4.700;2022-08-24T00:15:36;2.10;;;2.00;;
17151;SDS011;8691;50.828;4.700;2022-08-24T00:18:03;2.20;;;2.00;;
17151;SDS011;8691;50.828;4.700;2022-08-24T00:20:29;2.43;;;2.23;;
17151;SDS011;8691;50.828;4.700;2022-08-24T00:22:57;2.57;;;2.37;;
17151;SDS011;8691;50.828;4.700;2022-08-24T00:25:23;2.40;;;2.20;;
17151;SDS011;8691;50.828;4.700;2022-08-24T00:27:51;2.47;;;2.30;;
17151;SDS011;8691;50.828;4.700;2022-08-24T00:30:18;4.47;;;2.60;;
17151;SDS011;8691;50.828;4.700;2022-08-24T00:32:46;2.70;;;2.50;;
17151;SDS011;8691;50.828;4.700;2022-08-24T00:35:11;2.50;;;2.30;;
17151;SDS011;8691;50.828;4.700;2022-08-24T00:37:39;3.20;;;2.70;;
17151;SDS011;8691;50.828;4.700;2022-08-24T00:40:07;4.27;;;2.77;;
17151;SDS011;8691;50.828;4.700;2022-08-24T00:42:32;2.80;;;2.60;;
17151;SDS011;8691;50.828;4.700;2022-08-24T00:44:59;2.87;;;2.67;;
17151;SDS011;8691;50.828;4.700;2022-08-24T00:47:29;3.20;;;2.90;;
17151;SDS011;8691;50.828;4.700;2022-08-24T00:49:57;3.53;;;2.80;;
17151;SDS011;8691;50.828;4.700;2022-08-24T00:52:22;3.17;;;2.97;;
17151;SDS011;8691;50.828;4.700;2022-08-24T00:54:49;3.03;;;2.83;;
17151;SDS011;8691;50.828;4.700;2022-08-24T00:57:16;4.60;;;2.80;;
17151;SDS011;8691;50.828;4.700;2022-08-24T00:59:47;3.33;;;3.05;;
17151;SDS011;8691;50.828;4.700;2022-08-24T01:02:16;3.45;;;2.75;;
17151;SDS011;8691;50.828;4.700;2022-08-24T01:04:43;2.77;;;2.57;;
17151;SDS011;8691;50.828;4.700;2022-08-24T01:07:07;2.77;;;2.50;;
17151;SDS011;8691;50.828;4.700;2022-08-24T01:09:34;3.13;;;2.40;;
17151;SDS011;8691;50.828;4.700;2022-08-24T01:12:00;3.40;;;2.90;;
17151;SDS011;8691;50.828;4.700;2022-08-24T01:14:27;3.93;;;2.70;;
17151;SDS011;8691;50.828;4.700;2022-08-24T01:16:56;3.03;;;2.73;;
17151;SDS011;8691;50.828;4.700;2022-08-24T01:19:42;2.60;;;2.30;;
17151;SDS011;8691;50.828;4.700;2022-08-24T01:24:59;2.40;;;2.20;;
17151;SDS011;8691;50.828;4.700;2022-08-24T01:27:26;2.95;;;2.67;;
17151;SDS011;8691;50.828;4.700;2022-08-24T01:29:53;3.27;;;2.30;;
17151;SDS011;8691;50.828;4.700;2022-08-24T01:32:23;2.80;;;2.60;;
17151;SDS011;8691;50.828;4.700;2022-08-24T01:34:49;2.50;;;2.30;;
17151;SDS011;8691;50.828;4.700;2022-08-24T01:37:16;3.00;;;2.80;;
17151;SDS011;8691;50.828;4.700;2022-08-24T01:39:43;2.92;;;2.55;;
17151;SDS011;8691;50.828;4.700;2022-08-24T01:42:10;2.60;;;2.40;;
17151;SDS011;8691;50.828;4.700;2022-08-24T01:44:37;2.70;;;2.50;;
17151;SDS011;8691;50.828;4.700;2022-08-24T01:47:04;3.40;;;2.70;;
17151;SDS011;8691;50.828;4.700;2022-08-24T01:49:31;3.87;;;2.60;;
17151;SDS011;8691;50.828;4.700;2022-08-24T01:51:56;2.40;;;2.30;;
17151;SDS011;8691;50.828;4.700;2022-08-24T01:54:24;3.10;;;2.80;;
17151;SDS011;8691;50.828;4.700;2022-08-24T01:56:50;2.40;;;2.20;;
17151;SDS011;8691;50.828;4.700;2022-08-24T01:59:18;4.93;;;2.33;;
17151;SDS011;8691;50.828;4.700;2022-08-24T02:01:45;3.27;;;2.77;;
17151;SDS011;8691;50.828;4.700;2022-08-24T02:04:13;2.90;;;2.70;;
17151;SDS011;8691;50.828;4.700;2022-08-24T02:06:40;3.23;;;2.43;;
17151;SDS011;8691;50.828;4.700;2022-08-24T02:09:07;2.90;;;2.70;;
17151;SDS011;8691;50.828;4.700;2022-08-24T02:11:34;2.93;;;2.60;;
17151;SDS011;8691;50.828;4.700;2022-08-24T02:14:01;3.40;;;3.00;;
17151;SDS011;8691;50.828;4.700;2022-08-24T02:16:28;2.60;;;2.37;;
17151;SDS011;8691;50.828;4.700;2022-08-24T02:18:54;3.03;;;2.83;;
17151;SDS011;8691;50.828;4.700;2022-08-24T02:21:21;3.53;;;3.23;;
17151;SDS011;8691;50.828;4.700;2022-08-24T02:23:48;3.30;;;3.00;;
17151;SDS011;8691;50.828;4.700;2022-08-24T02:26:15;3.57;;;2.97;;
17151;SDS011;8691;50.828;4.700;2022-08-24T02:28:42;2.80;;;2.60;;
17151;SDS011;8691;50.828;4.700;2022-08-24T02:31:09;3.77;;;2.67;;
17151;SDS011;8691;50.828;4.700;2022-08-24T02:33:35;3.30;;;2.83;;
17151;SDS011;8691;50.828;4.700;2022-08-24T02:36:01;4.03;;;3.00;;
17151;SDS011;8691;50.828;4.700;2022-08-24T02:38:28;3.20;;;3.00;;
17151;SDS011;8691;50.828;4.700;2022-08-24T02:40:54;4.00;;;2.50;;
17151;SDS011;8691;50.828;4.700;2022-08-24T02:43:21;3.73;;;2.70;;
17151;SDS011;8691;50.828;4.700;2022-08-24T02:45:48;3.70;;;3.27;;
17151;SDS011;8691;50.828;4.700;2022-08-24T02:48:15;3.00;;;2.80;;
17151;SDS011;8691;50.828;4.700;2022-08-24T02:50:43;3.15;;;2.95;;
17151;SDS011;8691;50.828;4.700;2022-08-24T02:53:09;2.73;;;2.53;;
17151;SDS011;8691;50.828;4.700;2022-08-24T02:55:35;3.70;;;2.80;;
17151;SDS011;8691;50.828;4.700;2022-08-24T02:58:02;3.73;;;3.00;;
17151;SDS011;8691;50.828;4.700;2022-08-24T03:00:29;2.77;;;2.57;;
17151;SDS011;8691;50.828;4.700;2022-08-24T03:02:56;2.80;;;2.60;;
17151;SDS011;8691;50.828;4.700;2022-08-24T03:05:23;3.43;;;2.53;;
17151;SDS011;8691;50.828;4.700;2022-08-24T03:07:50;2.97;;;2.73;;
17151;SDS011;8691;50.828;4.700;2022-08-24T03:10:17;3.10;;;2.80;;
17151;SDS011;8691;50.828;4.700;2022-08-24T03:12:44;2.80;;;2.60;;
17151;SDS011;8691;50.828;4.700;2022-08-24T03:15:11;2.70;;;2.50;;
17151;SDS011;8691;50.828;4.700;2022-08-24T03:17:39;2.80;;;2.60;;
17151;SDS011;8691;50.828;4.700;2022-08-24T03:20:06;3.00;;;2.43;;
17151;SDS011;8691;50.828;4.700;2022-08-24T03:22:32;2.83;;;2.13;;
17151;SDS011;8691;50.828;4.700;2022-08-24T03:24:58;2.80;;;2.40;;
17151;SDS011;8691;50.828;4.700;2022-08-24T03:27:25;3.97;;;2.57;;
17151;SDS011;8691;50.828;4.700;2022-08-24T03:29:51;2.70;;;2.50;;
17151;SDS011;8691;50.828;4.700;2022-08-24T03:32:18;3.47;;;2.60;;
17151;SDS011;8691;50.828;4.700;2022-08-24T03:34:45;5.07;;;2.80;;
17151;SDS011;8691;50.828;4.700;2022-08-24T03:37:11;3.47;;;2.70;;
17151;SDS011;8691;50.828;4.700;2022-08-24T03:39:38;2.70;;;2.50;;
17151;SDS011;8691;50.828;4.700;2022-08-24T03:42:05;3.40;;;2.50;;
17151;SDS011;8691;50.828;4.700;2022-08-24T03:44:31;2.60;;;2.40;;
17151;SDS011;8691;50.828;4.700;2022-08-24T03:46:58;2.67;;;2.47;;
17151;SDS011;8691;50.828;4.700;2022-08-24T03:49:24;2.90;;;2.70;;
17151;SDS011;8691;50.828;4.700;2022-08-24T03:51:51;4.37;;;2.90;;
17151;SDS011;8691;50.828;4.700;2022-08-24T03:54:18;4.17;;;2.67;;
17151;SDS011;8691;50.828;4.700;2022-08-24T03:56:44;3.00;;;2.70;;
17151;SDS011;8691;50.828;4.700;2022-08-24T03:59:11;2.60;;;2.37;;
17151;SDS011;8691;50.828;4.700;2022-08-24T04:01:38;2.83;;;2.60;;
17151;SDS011;8691;50.828;4.700;2022-08-24T04:04:05;2.83;;;2.63;;
17151;SDS011;8691;50.828;4.700;2022-08-24T04:06:31;2.70;;;2.50;;
17151;SDS011;8691;50.828;4.700;2022-08-24T04:08:58;2.87;;;2.60;;
17151;SDS011;8691;50.828;4.700;2022-08-24T04:11:26;3.73;;;2.60;;
17151;SDS011;8691;50.828;4.700;2022-08-24T04:13:52;3.97;;;2.93;;
17151;SDS011;8691;50.828;4.700;2022-08-24T04:16:18;3.20;;;2.83;;
17151;SDS011;8691;50.828;4.700;2022-08-24T04:18:45;3.57;;;2.77;;
17151;SDS011;8691;50.828;4.700;2022-08-24T04:21:15;3.53;;;2.80;;
17151;SDS011;8691;50.828;4.700;2022-08-24T04:23:40;4.13;;;2.73;;
17151;SDS011;8691;50.828;4.700;2022-08-24T04:26:07;3.50;;;2.87;;
17151;SDS011;8691;50.828;4.700;2022-08-24T04:28:34;3.50;;;2.60;;
17151;SDS011;8691;50.828;4.700;2022-08-24T04:31:02;2.87;;;2.67;;
17151;SDS011;8691;50.828;4.700;2022-08-24T04:33:27;2.73;;;2.53;;
17151;SDS011;8691;50.828;4.700;2022-08-24T04:35:53;5.40;;;2.67;;
17151;SDS011;8691;50.828;4.700;2022-08-24T04:38:21;3.50;;;2.77;;
17151;SDS011;8691;50.828;4.700;2022-08-24T04:40:47;6.87;;;3.03;;
17151;SDS011;8691;50.828;4.700;2022-08-24T04:43:14;2.90;;;2.60;;
17151;SDS011;8691;50.828;4.700;2022-08-24T04:45:41;2.83;;;2.63;;
17151;SDS011;8691;50.828;4.700;2022-08-24T04:48:08;4.40;;;2.70;;
17151;SDS011;8691;50.828;4.700;2022-08-24T04:50:35;3.00;;;2.80;;
17151;SDS011;8691;50.828;4.700;2022-08-24T04:53:01;3.03;;;2.50;;
17151;SDS011;8691;50.828;4.700;2022-08-24T04:55:27;2.53;;;2.33;;
17151;SDS011;8691;50.828;4.700;2022-08-24T04:57:54;3.20;;;2.90;;
17151;SDS011;8691;50.828;4.700;2022-08-24T05:00:20;2.67;;;2.47;;
17151;SDS011;8691;50.828;4.700;2022-08-24T05:02:48;2.90;;;2.70;;
17151;SDS011;8691;50.828;4.700;2022-08-24T05:05:14;2.97;;;2.73;;
17151;SDS011;8691;50.828;4.700;2022-08-24T05:07:42;2.93;;;2.50;;
17151;SDS011;8691;50.828;4.700;2022-08-24T05:10:08;3.20;;;2.70;;
17151;SDS011;8691;50.828;4.700;2022-08-24T05:12:36;2.80;;;2.60;;
17151;SDS011;8691;50.828;4.700;2022-08-24T05:15:03;4.13;;;3.20;;
17151;SDS011;8691;50.828;4.700;2022-08-24T05:17:29;4.03;;;2.80;;
17151;SDS011;8691;50.828;4.700;2022-08-24T05:19:56;2.97;;;2.73;;
17151;SDS011;8691;50.828;4.700;2022-08-24T05:22:23;3.23;;;2.93;;
17151;SDS011;8691;50.828;4.700;2022-08-24T05:24:50;5.20;;;2.70;;
17151;SDS011;8691;50.828;4.700;2022-08-24T05:27:17;2.63;;;2.43;;
17151;SDS011;8691;50.828;4.700;2022-08-24T05:29:44;3.53;;;2.50;;
17151;SDS011;8691;50.828;4.700;2022-08-24T05:32:11;5.30;;;2.70;;
17151;SDS011;8691;50.828;4.700;2022-08-24T05:34:38;4.50;;;3.00;;
17151;SDS011;8691;50.828;4.700;2022-08-24T05:37:05;3.60;;;2.77;;
17151;SDS011;8691;50.828;4.700;2022-08-24T05:39:32;4.33;;;2.90;;
17151;SDS011;8691;50.828;4.700;2022-08-24T05:41:59;3.30;;;2.87;;
17151;SDS011;8691;50.828;4.700;2022-08-24T05:44:26;3.37;;;2.83;;
17151;SDS011;8691;50.828;4.700;2022-08-24T05:46:53;4.77;;;3.93;;
17151;SDS011;8691;50.828;4.700;2022-08-24T05:49:20;5.67;;;4.10;;
17151;SDS011;8691;50.828;4.700;2022-08-24T05:51:46;5.80;;;4.20;;
17151;SDS011;8691;50.828;4.700;2022-08-24T05:54:13;4.17;;;3.17;;
17151;SDS011;8691;50.828;4.700;2022-08-24T05:56:39;6.77;;;3.50;;
17151;SDS011;8691;50.828;4.700;2022-08-24T05:59:06;7.30;;;3.83;;
17151;SDS011;8691;50.828;4.700;2022-08-24T06:01:33;6.83;;;4.30;;
17151;SDS011;8691;50.828;4.700;2022-08-24T06:04:00;7.03;;;3.50;;
17151;SDS011;8691;50.828;4.700;2022-08-24T06:06:27;5.60;;;3.55;;
17151;SDS011;8691;50.828;4.700;2022-08-24T06:08:54;5.93;;;3.17;;
17151;SDS011;8691;50.828;4.700;2022-08-24T06:11:25;5.65;;;3.70;;
17151;SDS011;8691;50.828;4.700;2022-08-24T06:13:54;5.50;;;3.22;;
17151;SDS011;8691;50.828;4.700;2022-08-24T06:16:22;5.93;;;3.75;;
17151;SDS011;8691;50.828;4.700;2022-08-24T06:18:49;4.70;;;3.62;;
17151;SDS011;8691;50.828;4.700;2022-08-24T06:21:19;5.18;;;3.60;;
17151;SDS011;8691;50.828;4.700;2022-08-24T06:23:44;8.05;;;4.43;;
17151;SDS011;8691;50.828;4.700;2022-08-24T06:26:11;6.70;;;5.13;;
17151;SDS011;8691;50.828;4.700;2022-08-24T06:28:56;8.68;;;5.72;;
17151;SDS011;8691;50.828;4.700;2022-08-24T06:31:23;8.53;;;7.80;;
17151;SDS011;8691;50.828;4.700;2022-08-24T06:33:49;10.30;;;8.80;;
17151;SDS011;8691;50.828;4.700;2022-08-24T06:36:16;10.75;;;9.65;;
17151;SDS011;8691;50.828;4.700;2022-08-24T06:38:43;12.50;;;11.40;;
17151;SDS011;8691;50.828;4.700;2022-08-24T06:41:11;14.77;;;10.48;;
17151;SDS011;8691;50.828;4.700;2022-08-24T06:43:38;10.80;;;9.30;;
17151;SDS011;8691;50.828;4.700;2022-08-24T06:46:05;10.43;;;9.35;;
17151;SDS011;8691;50.828;4.700;2022-08-24T06:48:33;10.05;;;9.07;;
17151;SDS011;8691;50.828;4.700;2022-08-24T06:51:00;10.65;;;9.55;;
17151;SDS011;8691;50.828;4.700;2022-08-24T06:53:27;13.27;;;10.40;;
17151;SDS011;8691;50.828;4.700;2022-08-24T06:55:56;12.10;;;10.88;;
17151;SDS011;8691;50.828;4.700;2022-08-24T06:58:22;13.35;;;10.48;;
17151;SDS011;8691;50.828;4.700;2022-08-24T07:00:49;11.30;;;10.10;;
17151;SDS011;8691;50.828;4.700;2022-08-24T07:03:16;11.93;;;10.60;;
17151;SDS011;8691;50.828;4.700;2022-08-24T07:05:50;12.73;;;11.00;;
17151;SDS011;8691;50.828;4.700;2022-08-24T07:08:19;11.37;;;9.93;;
17151;SDS011;8691;50.828;4.700;2022-08-24T07:10:46;10.82;;;9.82;;
17151;SDS011;8691;50.828;4.700;2022-08-24T07:13:13;11.32;;;10.12;;
17151;SDS011;8691;50.828;4.700;2022-08-24T07:15:41;19.08;;;17.38;;
17151;SDS011;8691;50.828;4.700;2022-08-24T07:18:10;25.67;;;23.17;;
17151;SDS011;8691;50.828;4.700;2022-08-24T07:20:35;27.27;;;24.60;;
17151;SDS011;8691;50.828;4.700;2022-08-24T07:23:05;27.10;;;24.27;;
17151;SDS011;8691;50.828;4.700;2022-08-24T07:25:29;27.47;;;24.47;;
17151;SDS011;8691;50.828;4.700;2022-08-24T07:27:56;25.90;;;23.50;;
17151;SDS011;8691;50.828;4.700;2022-08-24T07:30:22;17.03;;;14.30;;
17151;SDS011;8691;50.828;4.700;2022-08-24T07:32:49;16.33;;;14.67;;
17151;SDS011;8691;50.828;4.700;2022-08-24T07:35:15;17.70;;;15.93;;
17151;SDS011;8691;50.828;4.700;2022-08-24T07:37:42;28.27;;;25.57;;
17151;SDS011;8691;50.828;4.700;2022-08-24T07:40:10;28.07;;;25.47;;
17151;SDS011;8691;50.828;4.700;2022-08-24T07:42:37;27.95;;;25.42;;
17151;SDS011;8691;50.828;4.700;2022-08-24T07:45:04;27.00;;;24.33;;
17151;SDS011;8691;50.828;4.700;2022-08-24T07:47:30;25.67;;;23.13;;
17151;SDS011;8691;50.828;4.700;2022-08-24T07:49:58;24.73;;;22.33;;
17151;SDS011;8691;50.828;4.700;2022-08-24T07:52:25;23.38;;;21.02;;
17151;SDS011;8691;50.828;4.700;2022-08-24T07:54:52;23.67;;;21.27;;
17151;SDS011;8691;50.828;4.700;2022-08-24T07:57:19;24.27;;;21.97;;
17151;SDS011;8691;50.828;4.700;2022-08-24T07:59:46;21.60;;;19.50;;
17151;SDS011;8691;50.828;4.700;2022-08-24T08:02:13;20.92;;;18.88;;
17151;SDS011;8691;50.828;4.700;2022-08-24T08:04:40;20.37;;;18.30;;
17151;SDS011;8691;50.828;4.700;2022-08-24T08:07:07;18.12;;;16.30;;
17151;SDS011;8691;50.828;4.700;2022-08-24T08:09:35;16.90;;;15.40;;
17151;SDS011;8691;50.828;4.700;2022-08-24T08:12:03;14.77;;;13.43;;
17151;SDS011;8691;50.828;4.700;2022-08-24T08:14:30;14.75;;;13.18;;
17151;SDS011;8691;50.828;4.700;2022-08-24T08:16:57;14.07;;;12.57;;
17151;SDS011;8691;50.828;4.700;2022-08-24T08:19:24;15.00;;;13.60;;
17151;SDS011;8691;50.828;4.700;2022-08-24T08:21:51;14.90;;;13.55;;
17151;SDS011;8691;50.828;4.700;2022-08-24T08:24:37;16.02;;;14.48;;
17151;SDS011;8691;50.828;4.700;2022-08-24T08:27:03;16.10;;;14.60;;
17151;SDS011;8691;50.828;4.700;2022-08-24T08:29:31;14.70;;;13.05;;
17151;SDS011;8691;50.828;4.700;2022-08-24T08:31:57;17.67;;;15.97;;
17151;SDS011;8691;50.828;4.700;2022-08-24T08:34:24;17.38;;;15.77;;
17151;SDS011;8691;50.828;4.700;2022-08-24T08:36:50;17.70;;;16.00;;
17151;SDS011;8691;50.828;4.700;2022-08-24T08:39:18;18.50;;;15.33;;
17151;SDS011;8691;50.828;4.700;2022-08-24T08:47:43;16.85;;;15.35;;
17151;SDS011;8691;50.828;4.700;2022-08-24T08:53:28;15.70;;;14.25;;
17151;SDS011;8691;50.828;4.700;2022-08-24T08:56:15;15.48;;;14.07;;
17151;SDS011;8691;50.828;4.700;2022-08-24T09:09:44;16.90;;;11.40;;
17151;SDS011;8691;50.828;4.700;2022-08-24T09:12:20;11.20;;;9.95;;
17151;SDS011;8691;50.828;4.700;2022-08-24T09:17:32;10.30;;;7.80;;
17151;SDS011;8691;50.828;4.700;2022-08-24T09:20:18;7.72;;;6.20;;
17151;SDS011;8691;50.828;4.700;2022-08-24T09:22:43;9.85;;;6.18;;
17151;SDS011;8691;50.828;4.700;2022-08-24T09:25:22;5.80;;;5.28;;
17151;SDS011;8691;50.828;4.700;2022-08-24T09:27:53;4.22;;;3.80;;
17151;SDS011;8691;50.828;4.700;2022-08-24T09:30:17;4.95;;;4.05;;
17151;SDS011;8691;50.828;4.700;2022-08-24T09:46:59;5.30;;;3.35;;
17151;SDS011;8691;50.828;4.700;2022-08-24T09:49:44;3.40;;;2.62;;
17151;SDS011;8691;50.828;4.700;2022-08-24T09:52:23;4.65;;;2.50;;
17151;SDS011;8691;50.828;4.700;2022-08-24T10:01:14;2.35;;;2.05;;
17151;SDS011;8691;50.828;4.700;2022-08-24T10:12:00;3.85;;;1.60;;
17151;SDS011;8691;50.828;4.700;2022-08-24T10:14:44;2.58;;;1.50;;
17151;SDS011;8691;50.828;4.700;2022-08-24T10:17:20;3.85;;;1.38;;
17151;SDS011;8691;50.828;4.700;2022-08-24T10:19:57;4.30;;;0.73;;
17151;SDS011;8691;50.828;4.700;2022-08-24T10:22:45;1.58;;;1.05;;
17151;SDS011;8691;50.828;4.700;2022-08-24T10:31:13;1.25;;;0.68;;
17151;SDS011;8691;50.828;4.700;2022-08-24T10:33:55;1.95;;;0.70;;
17151;SDS011;8691;50.828;4.700;2022-08-24T10:39:16;1.10;;;0.70;;
17151;SDS011;8691;50.828;4.700;2022-08-24T10:53:51;3.70;;;0.83;;
17151;SDS011;8691;50.828;4.700;2022-08-24T10:56:19;2.03;;;0.80;;
17151;SDS011;8691;50.828;4.700;2022-08-24T11:01:21;2.15;;;0.85;;
17151;SDS011;8691;50.828;4.700;2022-08-24T11:03:49;2.17;;;0.83;;
17151;SDS011;8691;50.828;4.700;2022-08-24T11:06:16;6.33;;;1.00;;
17151;SDS011;8691;50.828;4.700;2022-08-24T11:08:54;5.93;;;1.10;;
17151;SDS011;8691;50.828;4.700;2022-08-24T11:11:25;4.22;;;1.20;;
17151;SDS011;8691;50.828;4.700;2022-08-24T11:13:56;5.30;;;1.10;;
17151;SDS011;8691;50.828;4.700;2022-08-24T11:16:26;3.75;;;1.25;;
17151;SDS011;8691;50.828;4.700;2022-08-24T11:18:53;3.00;;;1.50;;
17151;SDS011;8691;50.828;4.700;2022-08-24T11:21:31;2.97;;;1.10;;
17151;SDS011;8691;50.828;4.700;2022-08-24T11:23:46;2.42;;;0.82;;
17151;SDS011;8691;50.828;4.700;2022-08-24T11:26:20;5.62;;;1.20;;
17151;SDS011;8691;50.828;4.700;2022-08-24T11:28:49;1.88;;;1.10;;
17151;SDS011;8691;50.828;4.700;2022-08-24T11:31:20;3.47;;;1.50;;
17151;SDS011;8691;50.828;4.700;2022-08-24T11:33:47;4.00;;;1.20;;
17151;SDS011;8691;50.828;4.700;2022-08-24T11:36:18;3.78;;;1.40;;
17151;SDS011;8691;50.828;4.700;2022-08-24T11:38:46;4.83;;;1.43;;
17151;SDS011;8691;50.828;4.700;2022-08-24T11:41:27;4.20;;;1.70;;
17151;SDS011;8691;50.828;4.700;2022-08-24T11:46:41;3.22;;;1.50;;
17151;SDS011;8691;50.828;4.700;2022-08-24T11:52:06;3.97;;;1.30;;
17151;SDS011;8691;50.828;4.700;2022-08-24T11:59:56;3.65;;;1.20;;
17151;SDS011;8691;50.828;4.700;2022-08-24T12:02:33;2.15;;;1.10;;
17151;SDS011;8691;50.828;4.700;2022-08-24T12:13:42;4.18;;;1.33;;
17151;SDS011;8691;50.828;4.700;2022-08-24T12:15:39;2.47;;;1.40;;
17151;SDS011;8691;50.828;4.700;2022-08-24T12:20:48;4.88;;;1.20;;
17151;SDS011;8691;50.828;4.700;2022-08-24T12:23:19;2.10;;;1.10;;
17151;SDS011;8691;50.828;4.700;2022-08-24T12:25:47;3.22;;;1.45;;
17151;SDS011;8691;50.828;4.700;2022-08-24T12:28:17;2.67;;;1.30;;
17151;SDS011;8691;50.828;4.700;2022-08-24T12:30:42;3.88;;;1.45;;
17151;SDS011;8691;50.828;4.700;2022-08-24T12:33:10;2.80;;;1.70;;
17151;SDS011;8691;50.828;4.700;2022-08-24T12:35:44;4.03;;;1.47;;
17151;SDS011;8691;50.828;4.700;2022-08-24T12:38:13;2.53;;;1.37;;
17151;SDS011;8691;50.828;4.700;2022-08-24T12:40:43;4.87;;;1.30;;
17151;SDS011;8691;50.828;4.700;2022-08-24T12:43:31;4.00;;;1.60;;
17151;SDS011;8691;50.828;4.700;2022-08-24T12:45:57;4.68;;;1.55;;
17151;SDS011;8691;50.828;4.700;2022-08-24T13:01:06;4.18;;;1.30;;
17151;SDS011;8691;50.828;4.700;2022-08-24T13:03:34;3.97;;;1.62;;
17151;SDS011;8691;50.828;4.700;2022-08-24T13:06:02;2.05;;;1.25;;
17151;SDS011;8691;50.828;4.700;2022-08-24T13:08:33;4.47;;;1.50;;
17151;SDS011;8691;50.828;4.700;2022-08-24T13:11:06;4.00;;;1.43;;
17151;SDS011;8691;50.828;4.700;2022-08-24T13:21:57;3.23;;;1.60;;
17151;SDS011;8691;50.828;4.700;2022-08-24T13:29:39;3.38;;;1.55;;
17151;SDS011;8691;50.828;4.700;2022-08-24T13:32:05;4.75;;;1.70;;
17151;SDS011;8691;50.828;4.700;2022-08-24T13:34:37;4.20;;;1.50;;
17151;SDS011;8691;50.828;4.700;2022-08-24T13:37:18;3.22;;;1.60;;
17151;SDS011;8691;50.828;4.700;2022-08-24T13:45:32;2.90;;;1.60;;
17151;SDS011;8691;50.828;4.700;2022-08-24T13:50:35;3.30;;;1.30;;
17151;SDS011;8691;50.828;4.700;2022-08-24T13:55:52;3.30;;;1.40;;
17151;SDS011;8691;50.828;4.700;2022-08-24T13:58:23;4.40;;;1.50;;
17151;SDS011;8691;50.828;4.700;2022-08-24T14:01:05;4.35;;;1.60;;
17151;SDS011;8691;50.828;4.700;2022-08-24T14:04:17;3.33;;;1.20;;
17151;SDS011;8691;50.828;4.700;2022-08-24T14:06:28;2.37;;;1.43;;
17151;SDS011;8691;50.828;4.700;2022-08-24T14:14:25;3.78;;;1.38;;
17151;SDS011;8691;50.828;4.700;2022-08-24T14:20:04;4.15;;;1.50;;
17151;SDS011;8691;50.828;4.700;2022-08-24T14:25:30;2.15;;;0.95;;
17151;SDS011;8691;50.828;4.700;2022-08-24T14:35:42;3.30;;;1.30;;
17151;SDS011;8691;50.828;4.700;2022-08-24T14:38:20;3.35;;;1.40;;
17151;SDS011;8691;50.828;4.700;2022-08-24T14:49:41;4.17;;;1.30;;
17151;SDS011;8691;50.828;4.700;2022-08-24T14:52:25;3.07;;;1.30;;
17151;SDS011;8691;50.828;4.700;2022-08-24T14:54:54;4.57;;;1.40;;
17151;SDS011;8691;50.828;4.700;2022-08-24T14:57:21;4.50;;;1.40;;
17151;SDS011;8691;50.828;4.700;2022-08-24T15:08:02;6.72;;;1.48;;
17151;SDS011;8691;50.828;4.700;2022-08-24T15:10:30;3.87;;;1.20;;
17151;SDS011;8691;50.828;4.700;2022-08-24T15:13:05;3.97;;;1.70;;
17151;SDS011;8691;50.828;4.700;2022-08-24T15:15:51;2.92;;;1.40;;
17151;SDS011;8691;50.828;4.700;2022-08-24T15:23:16;2.70;;;1.10;;
17151;SDS011;8691;50.828;4.700;2022-08-24T15:26:02;4.60;;;1.30;;
17151;SDS011;8691;50.828;4.700;2022-08-24T15:28:29;4.43;;;1.42;;
17151;SDS011;8691;50.828;4.700;2022-08-24T15:30:57;4.27;;;1.30;;
17151;SDS011;8691;50.828;4.700;2022-08-24T15:33:22;3.38;;;1.20;;
17151;SDS011;8691;50.828;4.700;2022-08-24T15:35:51;4.20;;;1.20;;
17151;SDS011;8691;50.828;4.700;2022-08-24T15:38:17;3.30;;;1.40;;
17151;SDS011;8691;50.828;4.700;2022-08-24T15:40:43;2.90;;;1.30;;
17151;SDS011;8691;50.828;4.700;2022-08-24T15:43:10;2.30;;;1.27;;
17151;SDS011;8691;50.828;4.700;2022-08-24T15:45:40;3.30;;;1.40;;
17151;SDS011;8691;50.828;4.700;2022-08-24T15:48:04;2.05;;;1.12;;
17151;SDS011;8691;50.828;4.700;2022-08-24T15:50:32;3.00;;;1.30;;
17151;SDS011;8691;50.828;4.700;2022-08-24T15:53:01;3.50;;;1.30;;
17151;SDS011;8691;50.828;4.700;2022-08-24T15:58:17;2.90;;;1.20;;
17151;SDS011;8691;50.828;4.700;2022-08-24T16:00:59;3.88;;;1.40;;
17151;SDS011;8691;50.828;4.700;2022-08-24T16:03:50;3.10;;;1.10;;
17151;SDS011;8691;50.828;4.700;2022-08-24T16:08:52;3.78;;;1.30;;
17151;SDS011;8691;50.828;4.700;2022-08-24T16:11:20;4.88;;;1.50;;
17151;SDS011;8691;50.828;4.700;2022-08-24T16:13:45;5.30;;;1.60;;
17151;SDS011;8691;50.828;4.700;2022-08-24T16:16:13;6.95;;;1.25;;
17151;SDS011;8691;50.828;4.700;2022-08-24T16:18:50;8.10;;;1.50;;
17151;SDS011;8691;50.828;4.700;2022-08-24T16:24:10;2.17;;;1.20;;
17151;SDS011;8691;50.828;4.700;2022-08-24T16:34:49;3.20;;;1.33;;
17151;SDS011;8691;50.828;4.700;2022-08-24T16:37:13;3.03;;;1.20;;
17151;SDS011;8691;50.828;4.700;2022-08-24T16:39:42;2.35;;;1.17;;
17151;SDS011;8691;50.828;4.700;2022-08-24T16:42:10;2.10;;;1.10;;
17151;SDS011;8691;50.828;4.700;2022-08-24T16:44:37;2.55;;;1.02;;
17151;SDS011;8691;50.828;4.700;2022-08-24T16:47:03;2.67;;;1.20;;
17151;SDS011;8691;50.828;4.700;2022-08-24T16:49:30;5.13;;;1.17;;
17151;SDS011;8691;50.828;4.700;2022-08-24T16:51:57;4.40;;;1.45;;
17151;SDS011;8691;50.828;4.700;2022-08-24T16:54:24;2.80;;;1.10;;
17151;SDS011;8691;50.828;4.700;2022-08-24T16:56:51;3.30;;;1.52;;
17151;SDS011;8691;50.828;4.700;2022-08-24T16:59:19;2.25;;;1.27;;
17151;SDS011;8691;50.828;4.700;2022-08-24T17:01:44;2.97;;;1.30;;
17151;SDS011;8691;50.828;4.700;2022-08-24T17:04:11;2.25;;;1.20;;
17151;SDS011;8691;50.828;4.700;2022-08-24T17:06:38;2.03;;;1.20;;
17151;SDS011;8691;50.828;4.700;2022-08-24T17:09:06;4.55;;;1.33;;
17151;SDS011;8691;50.828;4.700;2022-08-24T17:11:33;3.60;;;1.20;;
17151;SDS011;8691;50.828;4.700;2022-08-24T17:14:01;2.30;;;1.25;;
17151;SDS011;8691;50.828;4.700;2022-08-24T17:16:28;3.38;;;1.30;;
17151;SDS011;8691;50.828;4.700;2022-08-24T17:18:58;2.85;;;1.20;;
17151;SDS011;8691;50.828;4.700;2022-08-24T17:21:24;3.20;;;1.37;;
17151;SDS011;8691;50.828;4.700;2022-08-24T17:23:51;3.40;;;1.17;;
17151;SDS011;8691;50.828;4.700;2022-08-24T17:26:19;3.70;;;1.35;;
17151;SDS011;8691;50.828;4.700;2022-08-24T17:28:46;2.58;;;1.30;;
17151;SDS011;8691;50.828;4.700;2022-08-24T17:31:13;4.70;;;1.30;;
17151;SDS011;8691;50.828;4.700;2022-08-24T17:33:40;2.92;;;1.30;;
17151;SDS011;8691;50.828;4.700;2022-08-24T17:36:07;5.00;;;1.43;;
17151;SDS011;8691;50.828;4.700;2022-08-24T17:38:35;4.65;;;1.30;;
17151;SDS011;8691;50.828;4.700;2022-08-24T17:41:00;4.60;;;1.30;;
17151;SDS011;8691;50.828;4.700;2022-08-24T17:43:28;5.93;;;1.60;;
17151;SDS011;8691;50.828;4.700;2022-08-24T17:45:55;2.65;;;1.00;;
17151;SDS011;8691;50.828;4.700;2022-08-24T17:48:23;1.70;;;1.30;;
17151;SDS011;8691;50.828;4.700;2022-08-24T17:50:49;3.72;;;1.50;;
17151;SDS011;8691;50.828;4.700;2022-08-24T17:53:16;3.23;;;1.33;;
17151;SDS011;8691;50.828;4.700;2022-08-24T17:55:44;2.65;;;1.33;;
17151;SDS011;8691;50.828;4.700;2022-08-24T17:58:11;3.08;;;1.42;;
17151;SDS011;8691;50.828;4.700;2022-08-24T18:00:38;1.97;;;1.33;;
17151;SDS011;8691;50.828;4.700;2022-08-24T18:03:05;2.10;;;1.30;;
17151;SDS011;8691;50.828;4.700;2022-08-24T18:05:32;4.67;;;1.37;;
17151;SDS011;8691;50.828;4.700;2022-08-24T18:07:59;4.10;;;1.38;;
17151;SDS011;8691;50.828;4.700;2022-08-24T18:10:26;4.10;;;1.70;;
17151;SDS011;8691;50.828;4.700;2022-08-24T18:12:52;3.77;;;1.50;;
17151;SDS011;8691;50.828;4.700;2022-08-24T18:15:19;3.12;;;1.52;;
17151;SDS011;8691;50.828;4.700;2022-08-24T18:17:47;2.75;;;1.40;;
17151;SDS011;8691;50.828;4.700;2022-08-24T18:20:13;2.90;;;1.40;;